createdAt,value
2022-08-31T00:04:02.341Z,76.0
2022-08-31T00:09:08.541Z,76.5
2022-08-31T00:14:14.749Z,76.5
2022-08-31T00:19:20.953Z,77.0
2022-08-31T00:24:27.164Z,77.0
2022-08-31T00:29:33.372Z,77.0
2022-08-31T00:34:39.580Z,77.5
2022-08-31T00:39:45.793Z,77.5
2022-08-31T00:44:51.997Z,78.0
2022-08-31T00:49:58.217Z,78.0
2022-08-31T00:55:04.414Z,78.5
2022-08-31T01:00:09.655Z,78.5
2022-08-31T01:05:15.865Z,78.5
2022-08-31T01:10:21.100Z,79.0
2022-08-31T01:15:27.304Z,79.0
2022-08-31T01:20:33.512Z,79.5
2022-08-31T01:25:39.725Z,79.5
2022-08-31T01:30:45.931Z,79.5
2022-08-31T01:35:52.135Z,79.5
2022-08-31T01:40:58.345Z,80.0
2022-08-31T01:46:03.572Z,80.0
2022-08-31T01:51:10.770Z,80.0
2022-08-31T01:56:15.989Z,80.5
2022-08-31T02:01:33.918Z,80.5
2022-08-31T02:06:28.684Z,80.5
2022-08-31T02:11:34.620Z,81.0
2022-08-31T02:16:40.900Z,81.0
2022-08-31T02:21:47.029Z,81.0
2022-08-31T02:26:54.035Z,81.5
2022-08-31T02:31:59.446Z,81.5
2022-08-31T02:37:05.660Z,81.5
2022-08-31T02:42:11.868Z,81.5
2022-08-31T02:47:18.074Z,81.5
2022-08-31T02:52:24.282Z,81.5
2022-08-31T02:57:29.516Z,81.5
2022-08-31T03:02:35.762Z,82.0
2022-08-31T03:07:40.957Z,82.0
2022-08-31T03:12:47.166Z,82.0
2022-08-31T03:17:53.378Z,82.0
2022-08-31T03:22:59.610Z,82.0
2022-08-31T03:28:05.795Z,82.0
2022-08-31T03:33:12.002Z,82.0
2022-08-31T03:38:18.209Z,82.0
2022-08-31T03:43:24.423Z,82.0
2022-08-31T03:48:30.637Z,82.0
2022-08-31T03:53:36.846Z,81.5
2022-08-31T03:58:43.042Z,81.5
2022-08-31T04:03:49.256Z,81.5
2022-08-31T04:08:56.144Z,81.0
2022-08-31T04:14:01.699Z,81.0
2022-08-31T04:19:08.074Z,81.0
2022-08-31T04:24:14.086Z,80.5
2022-08-31T04:29:20.310Z,80.5
2022-08-31T04:34:26.494Z,80.5
2022-08-31T04:39:32.877Z,80.5
2022-08-31T04:44:38.915Z,80.5
2022-08-31T04:49:45.121Z,80.5
2022-08-31T04:54:50.357Z,80.5
2022-08-31T04:59:56.567Z,81.0
2022-08-31T05:05:01.824Z,81.0
2022-08-31T05:10:08.022Z,81.0
2022-08-31T05:15:14.225Z,81.0
2022-08-31T05:20:20.438Z,80.5
2022-08-31T05:25:26.644Z,80.5
2022-08-31T05:30:32.853Z,80.5
2022-08-31T05:35:39.063Z,80.5
2022-08-31T05:40:45.334Z,80.5
2022-08-31T05:45:51.530Z,80.5
2022-08-31T05:50:57.683Z,80.5
2022-08-31T05:56:03.895Z,80.5
2022-08-31T06:01:10.100Z,80.0
2022-08-31T06:06:16.311Z,80.0
2022-08-31T06:11:22.516Z,80.0
2022-08-31T06:16:28.812Z,80.0
2022-08-31T06:21:34.942Z,80.0
2022-08-31T06:26:41.157Z,79.5
2022-08-31T06:31:47.472Z,79.0
2022-08-31T06:36:53.583Z,78.5
2022-08-31T06:41:59.792Z,78.0
2022-08-31T06:47:05.999Z,78.0
2022-08-31T06:52:11.245Z,77.5
2022-08-31T06:57:17.445Z,77.0
2022-08-31T07:02:23.708Z,77.0
2022-08-31T07:07:28.885Z,76.5
2022-08-31T07:12:35.093Z,76.5
2022-08-31T07:17:41.305Z,75.5
2022-08-31T07:22:47.505Z,75.0
2022-08-31T07:27:53.713Z,74.5
2022-08-31T07:32:59.923Z,74.5
2022-08-31T07:38:06.132Z,74.5
2022-08-31T07:43:12.352Z,74.0
2022-08-31T07:48:18.552Z,73.5
2022-08-31T07:53:24.759Z,73.5
2022-08-31T07:58:30.966Z,73.5
2022-08-31T08:03:37.175Z,73.5
2022-08-31T08:08:43.454Z,73.5
2022-08-31T08:13:49.655Z,73.5
2022-08-31T08:18:55.801Z,72.5
2022-08-31T08:24:02.014Z,72.0
2022-08-31T08:29:08.224Z,72.0
2022-08-31T08:34:14.440Z,71.5
2022-08-31T08:39:20.637Z,71.5
2022-08-31T08:44:26.842Z,70.0
2022-08-31T08:49:33.050Z,70.0
2022-08-31T08:54:38.290Z,70.0
2022-08-31T08:59:44.500Z,70.0
2022-08-31T09:04:50.744Z,70.0
2022-08-31T09:09:55.942Z,69.0
2022-08-31T09:15:02.157Z,69.5
2022-08-31T09:20:08.364Z,69.5
2022-08-31T09:25:14.586Z,69.0
2022-08-31T09:30:20.781Z,69.0
2022-08-31T09:35:26.985Z,69.5
2022-08-31T09:40:33.237Z,69.0
2022-08-31T09:45:42.303Z,69.0
2022-08-31T09:50:45.614Z,68.5
2022-08-31T09:55:51.826Z,69.0
2022-08-31T10:00:58.092Z,68.5
2022-08-31T10:06:04.240Z,69.0
2022-08-31T10:11:10.471Z,69.0
2022-08-31T10:16:16.698Z,69.0
2022-08-31T10:21:22.866Z,69.0
2022-08-31T10:26:29.076Z,70.0
2022-08-31T10:31:35.366Z,69.5
2022-08-31T10:36:41.498Z,70.5
2022-08-31T10:41:47.706Z,70.0
2022-08-31T10:46:53.922Z,68.5
2022-08-31T10:52:00.130Z,68.0
2022-08-31T10:57:05.363Z,68.0
2022-08-31T11:02:11.566Z,68.0
2022-08-31T11:07:16.806Z,68.0
2022-08-31T11:12:23.013Z,67.5
2022-08-31T11:17:29.221Z,67.0
2022-08-31T11:22:35.435Z,67.0
2022-08-31T11:27:41.644Z,66.5
2022-08-31T11:37:54.064Z,66.5
2022-08-31T11:43:00.270Z,66.5
2022-08-31T11:48:06.475Z,66.0
2022-08-31T11:53:12.685Z,66.0
2022-08-31T11:58:21.115Z,65.0
2022-08-31T12:03:25.107Z,65.0
2022-08-31T12:08:31.317Z,64.5
2022-08-31T12:13:37.536Z,64.0
2022-08-31T12:18:43.743Z,63.0
2022-08-31T12:23:49.962Z,62.0
2022-08-31T12:28:56.161Z,61.5
2022-08-31T12:34:02.378Z,61.5
2022-08-31T12:39:08.598Z,61.5
2022-08-31T12:44:14.806Z,61.5
2022-08-31T12:49:21.023Z,60.5
2022-08-31T12:54:27.243Z,61.5
2022-08-31T12:59:56.952Z,61.0
2022-08-31T13:04:38.709Z,60.0
2022-08-31T13:09:43.946Z,59.5
2022-08-31T13:14:50.165Z,59.5
2022-08-31T13:19:56.380Z,60.0
2022-08-31T13:25:02.601Z,59.5
2022-08-31T13:30:08.828Z,59.5
2022-08-31T13:35:15.268Z,0.0
2022-08-31T13:40:21.541Z,59.5
2022-08-31T13:45:27.703Z,59.0
2022-08-31T13:50:33.925Z,59.0
2022-08-31T13:55:40.144Z,58.5
2022-08-31T14:00:46.359Z,58.5
2022-08-31T14:05:52.577Z,58.5
2022-08-31T14:10:58.789Z,58.0
2022-08-31T14:16:05.016Z,57.0
2022-08-31T14:21:20.992Z,57.0
2022-08-31T14:26:17.689Z,56.5
2022-08-31T14:31:23.722Z,56.5
2022-08-31T14:36:29.876Z,57.0
2022-08-31T14:41:36.095Z,57.5
2022-08-31T14:46:42.341Z,57.5
2022-08-31T14:51:48.761Z,0.0
2022-08-31T14:56:54.011Z,56.0
2022-08-31T15:02:00.293Z,55.0
2022-08-31T15:07:09.687Z,55.0
2022-08-31T15:12:11.688Z,54.5
2022-08-31T15:17:19.609Z,0.0
2022-08-31T15:22:24.339Z,55.0
2022-08-31T15:27:30.563Z,55.5
2022-08-31T15:32:36.786Z,55.5
2022-08-31T15:37:43.241Z,0.0
2022-08-31T15:42:49.470Z,54.0
2022-08-31T15:47:55.699Z,54.5
2022-08-31T15:53:08.050Z,54.5
2022-08-31T15:58:08.108Z,53.5
2022-08-31T16:03:14.327Z,54.5
2022-08-31T16:08:20.740Z,54.5
2022-08-31T16:13:26.790Z,54.0
2022-08-31T16:18:32.979Z,53.0
2022-08-31T16:23:39.201Z,53.0
2022-08-31T16:28:45.411Z,53.0
2022-08-31T16:33:51.635Z,53.5
2022-08-31T16:38:57.848Z,53.5
2022-08-31T16:44:19.066Z,0.0
2022-08-31T16:49:10.514Z,54.0
2022-08-31T16:54:15.760Z,54.0
2022-08-31T16:59:21.974Z,54.5
2022-08-31T17:04:48.547Z,54.5
2022-08-31T17:09:34.637Z,0.0
2022-08-31T17:14:41.084Z,0.0
2022-08-31T17:19:47.304Z,54.0
2022-08-31T17:24:53.517Z,54.0
2022-08-31T17:29:59.730Z,54.0
2022-08-31T17:35:07.512Z,54.5
2022-08-31T17:40:12.197Z,54.5
2022-08-31T17:45:18.385Z,54.5
2022-08-31T17:50:24.593Z,55.0
2022-08-31T17:55:30.802Z,55.5
2022-08-31T18:00:37.091Z,55.5
2022-08-31T18:05:43.637Z,56.5
2022-08-31T18:10:49.435Z,57.0
2022-08-31T18:15:55.690Z,57.0
2022-08-31T18:21:01.850Z,57.5
2022-08-31T18:26:08.056Z,57.5
2022-08-31T18:31:14.304Z,58.0
2022-08-31T18:36:20.654Z,58.5
2022-08-31T18:41:25.711Z,58.5
2022-08-31T18:46:31.996Z,59.0
2022-08-31T18:51:37.168Z,59.5
2022-08-31T18:56:43.378Z,60.5
2022-08-31T19:01:49.718Z,61.0
2022-08-31T19:06:54.820Z,61.5
2022-08-31T19:12:01.024Z,62.0
2022-08-31T19:17:07.275Z,62.5
2022-08-31T19:22:13.448Z,62.5
2022-08-31T19:27:19.654Z,63.0
2022-08-31T19:32:25.860Z,63.5
2022-08-31T19:37:32.068Z,64.0
2022-08-31T19:42:59.459Z,64.0
2022-08-31T19:47:44.489Z,64.0
2022-08-31T19:52:50.704Z,64.0
2022-08-31T19:57:56.910Z,64.5
2022-08-31T20:03:03.157Z,64.5
2022-08-31T20:08:09.323Z,65.0
2022-08-31T20:13:15.645Z,65.0
2022-08-31T20:18:21.760Z,65.0
2022-08-31T20:23:27.947Z,65.0
2022-08-31T20:28:34.159Z,65.0
2022-08-31T20:33:40.368Z,65.0
2022-08-31T20:38:46.571Z,65.5
2022-08-31T20:43:52.793Z,65.5
2022-08-31T20:48:58.993Z,65.5
2022-08-31T20:54:04.232Z,65.5
2022-08-31T20:59:10.437Z,65.5
2022-08-31T21:04:15.680Z,65.0
2022-08-31T21:09:21.881Z,65.0
2022-08-31T21:14:28.084Z,65.0
2022-08-31T21:19:34.298Z,64.5
2022-08-31T21:24:40.506Z,64.0
2022-08-31T21:29:46.714Z,64.0
2022-08-31T21:34:52.928Z,63.5
2022-08-31T21:39:59.131Z,63.5
2022-08-31T21:45:05.343Z,63.5
2022-08-31T21:50:11.550Z,63.0
2022-08-31T21:55:17.762Z,63.0
2022-08-31T22:00:23.969Z,63.0
2022-08-31T22:05:30.194Z,63.0
2022-08-31T22:10:36.385Z,63.0
2022-08-31T22:15:42.742Z,63.5
2022-08-31T22:20:48.802Z,63.0
2022-08-31T22:25:55.007Z,63.0
2022-08-31T22:31:01.389Z,63.0
2022-08-31T22:36:07.430Z,63.0
2022-08-31T22:41:13.638Z,63.5
2022-08-31T22:46:19.885Z,63.5
2022-08-31T22:51:25.080Z,63.5
2022-08-31T22:56:31.287Z,63.5
2022-08-31T23:01:36.579Z,64.0
2022-08-31T23:06:42.730Z,64.0
2022-08-31T23:11:48.939Z,64.5
2022-08-31T23:16:55.182Z,65.0
2022-08-31T23:22:01.359Z,65.0
2022-08-31T23:27:07.566Z,65.5
2022-08-31T23:32:13.765Z,66.0
2022-08-31T23:37:19.977Z,66.5
2022-08-31T23:42:26.185Z,67.0
2022-08-31T23:47:32.396Z,67.5
2022-08-31T23:52:38.603Z,68.0
2022-08-31T23:57:44.809Z,68.5
